Time,TemperatureF,DewpointF,PressureIn,WindDirection,WindDirectionDegrees,WindSpeedMPH,WindSpeedGustMPH,Humidity,HourlyPrecipIn,Conditions,Clouds,dailyrainin,SoftwareType,DateUTC
2013-03-18 00:02:00,56.0,35.0,-100.00,NNW,342,1.0,2.0,45,-99.99,,,-99.99,,2013-03-18 07:02:00,
2013-03-18 00:12:00,56.0,37.0,-100.00,NNW,339,2.0,2.0,48,-99.99,,,-99.99,,2013-03-18 07:12:00,
2013-03-18 00:22:00,56.0,37.0,-100.00,NE,47,1.0,4.0,48,-99.99,,,-99.99,,2013-03-18 07:22:00,
2013-03-18 00:31:00,55.0,34.0,-100.00,ENE,59,2.0,4.0,45,-99.99,,,-99.99,,2013-03-18 07:31:00,
2013-03-18 00:42:00,56.0,34.0,-100.00,NE,48,3.0,4.0,44,-99.99,,,-99.99,,2013-03-18 07:42:00,
2013-03-18 00:52:00,56.0,33.0,-100.00,NE,49,3.0,3.0,42,-99.99,,,-99.99,,2013-03-18 07:52:00,
2013-03-18 01:02:00,57.0,36.0,-100.00,NE,50,2.0,2.0,45,-99.99,,,-99.99,,2013-03-18 08:02:00,
2013-03-18 01:12:00,56.0,34.0,-100.00,NE,53,0.0,3.0,43,-99.99,,,-99.99,,2013-03-18 08:12:00,
2013-03-18 01:22:00,56.0,33.0,-100.00,ENE,60,2.0,4.0,42,-99.99,,,-99.99,,2013-03-18 08:22:00,
2013-03-18 01:42:00,56.0,31.0,-100.00,ENE,60,2.0,2.0,39,-99.99,,,-99.99,,2013-03-18 08:42:00,
2013-03-18 01:52:00,54.0,30.0,-100.00,East,98,1.0,3.0,39,-99.99,,,-99.99,,2013-03-18 08:52:00,
2013-03-18 02:02:00,51.0,31.0,-100.00,SE,146,2.0,6.0,46,-99.99,,,-99.99,,2013-03-18 09:02:00,
2013-03-18 02:12:00,50.0,32.0,-100.00,ESE,107,3.0,6.0,50,-99.99,,,-99.99,,2013-03-18 09:12:00,
2013-03-18 02:22:00,50.0,39.0,-100.00,SE,136,4.0,7.0,65,-99.99,,,-99.99,,2013-03-18 09:22:00,
2013-03-18 02:32:00,49.0,38.0,-100.00,SE,138,5.0,7.0,66,-99.99,,,-99.99,,2013-03-18 09:32:00,
2013-03-18 02:42:00,49.0,39.0,-100.00,SE,138,5.0,7.0,69,-99.99,,,-99.99,,2013-03-18 09:42:00,
2013-03-18 02:53:00,49.0,41.0,-100.00,SE,129,5.0,6.0,75,-99.99,,,-99.99,,2013-03-18 09:53:00,
2013-03-18 03:03:00,49.0,42.0,-100.00,SE,125,5.0,6.0,77,-99.99,,,-99.99,,2013-03-18 10:03:00,
2013-03-18 03:12:00,49.0,41.0,-100.00,ESE,106,4.0,5.0,74,-99.99,,,-99.99,,2013-03-18 10:12:00,
2013-03-18 03:23:00,49.0,41.0,-100.00,ESE,102,4.0,4.0,75,-99.99,,,-99.99,,2013-03-18 10:23:00,
2013-03-18 03:32:00,50.0,42.0,-100.00,ESE,106,3.0,5.0,75,-99.99,,,-99.99,,2013-03-18 10:32:00,
2013-03-18 03:42:00,50.0,43.0,-100.00,East,93,3.0,5.0,76,-99.99,,,-99.99,,2013-03-18 10:42:00,
2013-03-18 03:52:00,50.0,43.0,-100.00,East,95,4.0,5.0,76,-99.99,,,-99.99,,2013-03-18 10:52:00,
2013-03-18 04:02:00,50.0,42.0,-100.00,ESE,105,4.0,6.0,73,-99.99,,,-99.99,,2013-03-18 11:02:00,
2013-03-18 04:12:00,51.0,40.0,-100.00,ESE,112,4.0,6.0,66,-99.99,,,-99.99,,2013-03-18 11:12:00,
2013-03-18 04:22:00,52.0,40.0,-100.00,ESE,114,4.0,5.0,64,-99.99,,,-99.99,,2013-03-18 11:22:00,
2013-03-18 04:31:00,51.0,39.0,-100.00,ESE,109,4.0,5.0,64,-99.99,,,-99.99,,2013-03-18 11:31:00,
2013-03-18 04:42:00,52.0,39.0,-100.00,ESE,114,4.0,6.0,62,-99.99,,,-99.99,,2013-03-18 11:42:00,
2013-03-18 04:52:00,52.0,38.0,-100.00,SE,127,4.0,5.0,59,-99.99,,,-99.99,,2013-03-18 11:52:00,
2013-03-18 05:12:00,53.0,37.0,-100.00,SE,139,4.0,6.0,54,-99.99,,,-99.99,,2013-03-18 12:12:00,
2013-03-18 05:21:00,53.0,37.0,-100.00,SE,139,4.0,6.0,54,-99.99,,,-99.99,,2013-03-18 12:21:00,
2013-03-18 05:32:00,52.0,36.0,-100.00,SE,136,5.0,5.0,54,-99.99,,,-99.99,,2013-03-18 12:32:00,
2013-03-18 05:42:00,52.0,36.0,-100.00,SE,129,4.0,4.0,54,-99.99,,,-99.99,,2013-03-18 12:42:00,
2013-03-18 05:52:00,51.0,35.0,-100.00,ESE,109,4.0,6.0,55,-99.99,,,-99.99,,2013-03-18 12:52:00,
2013-03-18 06:02:00,51.0,35.0,-100.00,ESE,103,3.0,4.0,55,-99.99,,,-99.99,,2013-03-18 13:02:00,
2013-03-18 06:12:00,50.0,35.0,-100.00,East,94,3.0,5.0,56,-99.99,,,-99.99,,2013-03-18 13:12:00,
2013-03-18 06:22:00,51.0,35.0,-100.00,East,101,3.0,4.0,54,-99.99,,,-99.99,,2013-03-18 13:22:00,
2013-03-18 06:32:00,51.0,34.0,-100.00,East,94,3.0,4.0,52,-99.99,,,-99.99,,2013-03-18 13:32:00,
2013-03-18 06:52:00,52.0,34.0,-100.00,East,96,3.0,5.0,50,-99.99,,,-99.99,,2013-03-18 13:52:00,
2013-03-18 07:02:00,52.0,33.0,-100.00,East,98,3.0,4.0,49,-99.99,,,-99.99,,2013-03-18 14:02:00,
2013-03-18 07:12:00,52.0,33.0,-100.00,East,87,3.0,3.0,49,-99.99,,,-99.99,,2013-03-18 14:12:00,
2013-03-18 07:22:00,52.0,32.0,-100.00,ENE,69,2.0,3.0,46,-99.99,,,-99.99,,2013-03-18 14:22:00,
2013-03-18 07:32:00,53.0,31.0,-100.00,East,85,2.0,3.0,43,-99.99,,,-99.99,,2013-03-18 14:32:00,
2013-03-18 07:42:00,52.0,30.0,-100.00,ENE,69,2.0,3.0,43,-99.99,,,-99.99,,2013-03-18 14:42:00,
2013-03-18 07:52:00,53.0,31.0,-100.00,ENE,61,3.0,3.0,42,-99.99,,,-99.99,,2013-03-18 14:52:00,
2013-03-18 08:02:00,54.0,30.0,-100.00,ENE,61,2.0,4.0,40,-99.99,,,-99.99,,2013-03-18 15:02:00,
2013-03-18 08:12:00,54.0,31.0,-100.00,NE,48,3.0,4.0,41,-99.99,,,-99.99,,2013-03-18 15:12:00,
2013-03-18 08:22:00,54.0,31.0,-100.00,NE,48,3.0,4.0,41,-99.99,,,-99.99,,2013-03-18 15:22:00,
2013-03-18 08:33:00,57.0,31.0,-100.00,East,84,2.0,2.0,37,-99.99,,,-99.99,,2013-03-18 15:33:00,
2013-03-18 08:42:00,57.0,32.0,-100.00,SE,129,1.0,2.0,39,-99.99,,,-99.99,,2013-03-18 15:42:00,
2013-03-18 08:52:00,56.0,34.0,-100.00,SSE,161,1.0,2.0,43,-99.99,,,-99.99,,2013-03-18 15:52:00,
2013-03-18 09:02:00,57.0,35.0,-100.00,SE,127,2.0,4.0,43,-99.99,,,-99.99,,2013-03-18 16:02:00,
2013-03-18 09:12:00,57.0,33.0,-100.00,East,100,2.0,3.0,40,-99.99,,,-99.99,,2013-03-18 16:12:00,
2013-03-18 09:22:00,58.0,34.0,-100.00,SSE,163,2.0,4.0,40,-99.99,,,-99.99,,2013-03-18 16:22:00,
2013-03-18 09:32:00,56.0,34.0,-100.00,South,173,2.0,5.0,43,-99.99,,,-99.99,,2013-03-18 16:32:00,
2013-03-18 09:42:00,56.0,32.0,-100.00,SSE,167,4.0,5.0,40,-99.99,,,-99.99,,2013-03-18 16:42:00,
2013-03-18 09:52:00,56.0,32.0,-100.00,SSE,162,4.0,6.0,40,-99.99,,,-99.99,,2013-03-18 16:52:00,
2013-03-18 10:02:00,56.0,33.0,-100.00,South,171,4.0,5.0,42,-99.99,,,-99.99,,2013-03-18 17:02:00,
2013-03-18 10:12:00,57.0,34.0,-100.00,SSE,167,4.0,5.0,42,-99.99,,,-99.99,,2013-03-18 17:12:00,
2013-03-18 10:21:00,58.0,36.0,-100.00,South,170,4.0,6.0,43,-99.99,,,-99.99,,2013-03-18 17:21:00,
2013-03-18 10:32:00,59.0,37.0,-100.00,SSE,161,4.0,9.0,44,-99.99,,,-99.99,,2013-03-18 17:32:00,
2013-03-18 10:42:00,59.0,35.0,-100.00,SSE,168,5.0,8.0,41,-99.99,,,-99.99,,2013-03-18 17:42:00,
2013-03-18 10:52:00,60.0,36.0,-100.00,SSE,165,5.0,9.0,40,-99.99,,,-99.99,,2013-03-18 17:52:00,
2013-03-18 11:01:00,60.0,33.0,-100.00,SSE,165,6.0,9.0,36,-99.99,,,-99.99,,2013-03-18 18:01:00,
2013-03-18 11:12:00,61.0,34.0,-100.00,South,171,5.0,9.0,36,-99.99,,,-99.99,,2013-03-18 18:12:00,
2013-03-18 11:22:00,62.0,35.0,-100.00,South,180,5.0,12.0,37,-99.99,,,-99.99,,2013-03-18 18:22:00,
2013-03-18 11:32:00,63.0,36.0,-100.00,South,181,5.0,13.0,36,-99.99,,,-99.99,,2013-03-18 18:32:00,
2013-03-18 11:42:00,63.0,35.0,-100.00,South,191,7.0,10.0,35,-99.99,,,-99.99,,2013-03-18 18:42:00,
2013-03-18 11:52:00,64.0,38.0,-100.00,SW,225,7.0,10.0,38,-99.99,,,-99.99,,2013-03-18 18:52:00,
2013-03-18 12:02:00,64.0,38.0,-100.00,SW,225,7.0,10.0,38,-99.99,,,-99.99,,2013-03-18 19:02:00,
2013-03-18 12:11:00,58.0,46.0,-100.00,WNW,303,5.0,13.0,65,-99.99,,,-99.99,,2013-03-18 19:11:00,
2013-03-18 12:22:00,56.0,46.0,-100.00,WNW,303,7.0,13.0,70,-99.99,,,-99.99,,2013-03-18 19:22:00,
2013-03-18 12:32:00,56.0,46.0,-100.00,NW,310,7.0,10.0,69,-99.99,,,-99.99,,2013-03-18 19:32:00,
2013-03-18 12:42:00,56.0,45.0,-100.00,NW,307,6.0,7.0,67,-99.99,,,-99.99,,2013-03-18 19:42:00,
2013-03-18 12:52:00,58.0,45.0,-100.00,NW,313,4.0,7.0,63,-99.99,,,-99.99,,2013-03-18 19:52:00,
2013-03-18 13:02:00,60.0,47.0,-100.00,WNW,296,4.0,7.0,61,-99.99,,,-99.99,,2013-03-18 20:02:00,
2013-03-18 13:12:00,61.0,46.0,-100.00,WNW,291,3.0,8.0,58,-99.99,,,-99.99,,2013-03-18 20:12:00,
2013-03-18 13:22:00,62.0,47.0,-100.00,NW,309,4.0,9.0,57,-99.99,,,-99.99,,2013-03-18 20:22:00,
2013-03-18 13:32:00,62.0,47.0,-100.00,NW,306,5.0,10.0,57,-99.99,,,-99.99,,2013-03-18 20:32:00,
2013-03-18 13:42:00,61.0,47.0,-100.00,NW,308,6.0,10.0,60,-99.99,,,-99.99,,2013-03-18 20:42:00,
2013-03-18 13:52:00,60.0,48.0,-100.00,NW,306,6.0,12.0,64,-99.99,,,-99.99,,2013-03-18 20:52:00,
2013-03-18 14:02:00,60.0,48.0,-100.00,NW,306,6.0,12.0,64,-99.99,,,-99.99,,2013-03-18 21:02:00,
2013-03-18 14:11:00,61.0,48.0,-100.00,NW,306,5.0,11.0,62,-99.99,,,-99.99,,2013-03-18 21:11:00,
2013-03-18 14:22:00,62.0,48.0,-100.00,WNW,301,6.0,9.0,61,-99.99,,,-99.99,,2013-03-18 21:22:00,
2013-03-18 14:32:00,61.0,47.0,-100.00,WNW,303,5.0,11.0,61,-99.99,,,-99.99,,2013-03-18 21:32:00,
2013-03-18 14:42:00,61.0,48.0,-100.00,NW,306,6.0,13.0,62,-99.99,,,-99.99,,2013-03-18 21:42:00,
2013-03-18 14:52:00,61.0,47.0,-100.00,NW,305,6.0,12.0,61,-99.99,,,-99.99,,2013-03-18 21:52:00,
2013-03-18 15:03:00,62.0,47.0,-100.00,WNW,293,6.0,10.0,59,-99.99,,,-99.99,,2013-03-18 22:03:00,
2013-03-18 15:12:00,61.0,46.0,-100.00,WNW,294,5.0,12.0,58,-99.99,,,-99.99,,2013-03-18 22:12:00,
2013-03-18 15:22:00,61.0,47.0,-100.00,WNW,300,5.0,15.0,59,-99.99,,,-99.99,,2013-03-18 22:22:00,
2013-03-18 15:32:00,61.0,47.0,-100.00,WNW,293,6.0,10.0,60,-99.99,,,-99.99,,2013-03-18 22:32:00,
2013-03-18 15:42:00,61.0,47.0,-100.00,WNW,289,5.0,10.0,60,-99.99,,,-99.99,,2013-03-18 22:42:00,
2013-03-18 15:52:00,62.0,47.0,-100.00,WNW,283,5.0,11.0,59,-99.99,,,-99.99,,2013-03-18 22:52:00,
2013-03-18 16:02:00,61.0,47.0,-100.00,WNW,288,5.0,9.0,60,-99.99,,,-99.99,,2013-03-18 23:02:00,
2013-03-18 16:12:00,62.0,47.0,-100.00,WNW,294,4.0,12.0,59,-99.99,,,-99.99,,2013-03-18 23:12:00,
2013-03-18 16:22:00,61.0,47.0,-100.00,West,281,6.0,11.0,60,-99.99,,,-99.99,,2013-03-18 23:22:00,
2013-03-18 16:32:00,62.0,48.0,-100.00,WNW,285,5.0,11.0,60,-99.99,,,-99.99,,2013-03-18 23:32:00,
2013-03-18 16:42:00,61.0,48.0,-100.00,WNW,291,5.0,9.0,62,-99.99,,,-99.99,,2013-03-18 23:42:00,
2013-03-18 16:52:00,59.0,47.0,-100.00,WNW,301,4.0,10.0,65,-99.99,,,-99.99,,2013-03-18 23:52:00,
2013-03-18 17:02:00,59.0,47.0,-100.00,WNW,301,4.0,10.0,65,-99.99,,,-99.99,,2013-03-19 00:02:00,
2013-03-18 17:12:00,58.0,47.0,-100.00,WNW,297,6.0,11.0,68,-99.99,,,-99.99,,2013-03-19 00:12:00,
2013-03-18 17:22:00,58.0,47.0,-100.00,WNW,301,6.0,9.0,68,-99.99,,,-99.99,,2013-03-19 00:22:00,
2013-03-18 17:32:00,58.0,48.0,-100.00,WNW,303,5.0,9.0,69,-99.99,,,-99.99,,2013-03-19 00:32:00,
2013-03-18 17:42:00,58.0,48.0,-100.00,WNW,303,5.0,9.0,69,-99.99,,,-99.99,,2013-03-19 00:42:00,
2013-03-18 17:52:00,56.0,47.0,-100.00,WNW,291,5.0,9.0,72,-99.99,,,-99.99,,2013-03-19 00:52:00,
2013-03-18 18:02:00,56.0,48.0,-100.00,NW,305,4.0,7.0,74,-99.99,,,-99.99,,2013-03-19 01:02:00,
2013-03-18 18:12:00,55.0,47.0,-100.00,NW,307,5.0,8.0,75,-99.99,,,-99.99,,2013-03-19 01:12:00,
2013-03-18 18:22:00,54.0,47.0,-100.00,WNW,303,5.0,8.0,77,-99.99,,,-99.99,,2013-03-19 01:22:00,
2013-03-18 18:32:00,54.0,48.0,-100.00,WNW,303,5.0,8.0,79,-99.99,,,-99.99,,2013-03-19 01:32:00,
2013-03-18 18:42:00,53.0,47.0,-100.00,WNW,303,5.0,8.0,81,-99.99,,,-99.99,,2013-03-19 01:42:00,
2013-03-18 18:52:00,52.0,47.0,-100.00,NW,305,5.0,7.0,83,-99.99,,,-99.99,,2013-03-19 01:52:00,
2013-03-18 19:12:00,52.0,48.0,-100.00,NW,309,4.0,5.0,86,-99.99,,,-99.99,,2013-03-19 02:12:00,
2013-03-18 19:22:00,51.0,47.0,-100.00,NW,318,3.0,4.0,87,-99.99,,,-99.99,,2013-03-19 02:22:00,
2013-03-18 19:32:00,51.0,47.0,-100.00,NNW,329,3.0,3.0,87,-99.99,,,-99.99,,2013-03-19 02:32:00,
2013-03-18 19:42:00,52.0,48.0,-100.00,North,351,2.0,3.0,86,-99.99,,,-99.99,,2013-03-19 02:42:00,
2013-03-18 19:52:00,52.0,47.0,-100.00,North,11,2.0,3.0,84,-99.99,,,-99.99,,2013-03-19 02:52:00,
2013-03-18 20:01:00,52.0,47.0,-100.00,NE,38,2.0,4.0,83,-99.99,,,-99.99,,2013-03-19 03:01:00,
2013-03-18 20:11:00,53.0,48.0,-100.00,ENE,64,2.0,2.0,83,-99.99,,,-99.99,,2013-03-19 03:11:00,
2013-03-18 20:22:00,53.0,48.0,-100.00,South,174,1.0,1.0,82,-99.99,,,-99.99,,2013-03-19 03:22:00,
2013-03-18 20:32:00,52.0,47.0,-100.00,NW,318,0.0,5.0,83,-99.99,,,-99.99,,2013-03-19 03:32:00,
2013-03-18 20:42:00,52.0,48.0,-100.00,ENE,76,2.0,3.0,85,-99.99,,,-99.99,,2013-03-19 03:42:00,
2013-03-18 20:53:00,53.0,48.0,-100.00,SSE,152,2.0,3.0,83,-99.99,,,-99.99,,2013-03-19 03:53:00,
2013-03-18 21:02:00,53.0,48.0,-100.00,SSE,152,2.0,5.0,83,-99.99,,,-99.99,,2013-03-19 04:02:00,
2013-03-18 21:12:00,51.0,47.0,-100.00,WNW,297,1.0,5.0,86,-99.99,,,-99.99,,2013-03-19 04:12:00,
2013-03-18 21:22:00,50.0,47.0,-100.00,WNW,294,3.0,5.0,90,-99.99,,,-99.99,,2013-03-19 04:22:00,
2013-03-18 21:32:00,48.0,46.0,-100.00,NW,311,5.0,7.0,93,-99.99,,,-99.99,,2013-03-19 04:32:00,
2013-03-18 21:42:00,47.0,46.0,-100.00,NW,321,4.0,7.0,95,-99.99,,,-99.99,,2013-03-19 04:42:00,
2013-03-18 21:52:00,46.0,45.0,-100.00,NW,315,5.0,8.0,97,-99.99,,,-99.99,,2013-03-19 04:52:00,
2013-03-18 22:02:00,46.0,45.0,-100.00,NW,319,6.0,7.0,97,-99.99,,,-99.99,,2013-03-19 05:02:00,
2013-03-18 22:11:00,46.0,45.0,-100.00,NNW,343,5.0,6.0,98,-99.99,,,-99.99,,2013-03-19 05:11:00,
2013-03-18 22:22:00,47.0,46.0,-100.00,NNE,23,4.0,5.0,98,-99.99,,,-99.99,,2013-03-19 05:22:00,
2013-03-18 22:32:00,48.0,47.0,-100.00,NE,48,2.0,4.0,98,-99.99,,,-99.99,,2013-03-19 05:32:00,
2013-03-18 22:42:00,48.0,47.0,-100.00,ENE,69,2.0,4.0,98,-99.99,,,-99.99,,2013-03-19 05:42:00,
2013-03-18 22:52:00,49.0,48.0,-100.00,ENE,75,2.0,4.0,96,-99.99,,,-99.99,,2013-03-19 05:52:00,
2013-03-18 23:02:00,50.0,48.0,-100.00,ENE,73,3.0,4.0,92,-99.99,,,-99.99,,2013-03-19 06:02:00,
2013-03-18 23:12:00,51.0,48.0,-100.00,ENE,75,3.0,4.0,88,-99.99,,,-99.99,,2013-03-19 06:12:00,
2013-03-18 23:22:00,52.0,47.0,-100.00,ENE,76,3.0,4.0,84,-99.99,,,-99.99,,2013-03-19 06:22:00,
2013-03-18 23:32:00,52.0,47.0,-100.00,East,84,2.0,2.0,82,-99.99,,,-99.99,,2013-03-19 06:32:00,
2013-03-18 23:42:00,52.0,46.0,-100.00,WNW,284,1.0,4.0,81,-99.99,,,-99.99,,2013-03-19 06:42:00,
2013-03-18 23:52:00,50.0,46.0,-100.00,WNW,295,2.0,6.0,86,-99.99,,,-99.99,,2013-03-19 06:52:00,